Time;durP1;ratioP1;P1;durP2;ratioP2;P2;SDS_P1;SDS_P2;PMS_P1;PMS_P2;Temp;Humidity;BMP_temperature;BMP_pressure;BME280_temperature;BME280_humidity;BME280_pressure;Samples;Min_cycle;Max_cycle;Signal;HPM_P1;HPM_P2
2022/09/12 00:00:41;;;;;;;7.07;6.22;;;17.10;75.90;;;;;;6213437;23;20001;-66
2022/09/12 00:03:07;;;;;;;8.52;6.68;;;17.10;75.90;;;;;;6212779;23;20014;-66
2022/09/12 00:05:33;;;;;;;6.97;6.22;;;17.10;76.20;;;;;;6213198;23;20000;-66
2022/09/12 00:07:59;;;;;;;6.97;5.80;;;17.00;75.80;;;;;;6213239;23;20001;-66
2022/09/12 00:10:25;;;;;;;7.82;6.90;;;17.00;75.90;;;;;;6213275;23;19997;-66
2022/09/12 00:12:51;;;;;;;7.82;6.50;;;17.00;76.00;;;;;;6212372;23;20012;-66
2022/09/12 00:15:16;;;;;;;7.18;6.13;;;17.00;76.00;;;;;;6211604;23;20001;-66
2022/09/12 00:17:42;;;;;;;7.95;7.15;;;17.00;76.00;;;;;;6212163;23;20012;-66
2022/09/12 00:20:09;;;;;;;7.63;6.28;;;17.00;76.10;;;;;;6213496;23;20004;-65
2022/09/12 00:22:35;;;;;;;7.75;6.88;;;16.90;76.10;;;;;;6212187;23;20028;-66
2022/09/12 00:25:02;;;;;;;7.72;6.82;;;16.90;76.20;;;;;;6211988;23;20076;-65
2022/09/12 00:27:27;;;;;;;7.35;6.38;;;16.90;76.20;;;;;;6213143;23;20365;-64
2022/09/12 00:29:53;;;;;;;7.50;6.30;;;16.80;76.30;;;;;;6213507;23;20004;-64
2022/09/12 00:32:19;;;;;;;8.27;7.35;;;16.70;76.50;;;;;;6213448;23;20005;-65
2022/09/12 00:34:45;;;;;;;8.77;6.82;;;16.80;76.80;;;;;;6213078;23;20083;-65
2022/09/12 00:37:10;;;;;;;9.30;7.55;;;16.80;76.70;;;;;;6213355;23;20039;-65
2022/09/12 00:39:36;;;;;;;8.48;7.28;;;16.80;77.40;;;;;;6213120;23;20001;-65
2022/09/12 00:42:01;;;;;;;8.27;7.30;;;16.80;76.70;;;;;;6213152;23;20026;-65
2022/09/12 00:44:27;;;;;;;8.77;7.20;;;16.70;76.70;;;;;;6213268;23;20004;-65
2022/09/12 00:47:13;;;;;;;8.82;6.60;;;16.60;76.90;;;;;;6211949;23;20000;-65
2022/09/12 00:49:49;;;;;;;9.38;7.90;;;16.50;77.20;;;;;;6213379;23;20004;-65
2022/09/12 00:52:22;;;;;;;9.73;8.40;;;16.60;77.30;;;;;;6212772;23;20011;-65
2022/09/12 00:55:02;;;;;;;9.90;7.50;;;16.50;77.10;;;;;;6213263;23;20366;-65
2022/09/12 00:57:37;;;;;;;8.98;6.97;;;16.50;77.20;;;;;;6213013;23;20000;-65
2022/09/12 01:00:14;;;;;;;9.50;7.72;;;16.50;77.20;;;;;;6213101;23;20426;-65
2022/09/12 01:02:45;;;;;;;8.52;7.00;;;16.50;77.30;;;;;;6212762;23;20422;-66
2022/09/12 01:05:12;;;;;;;9.13;7.40;;;16.40;77.40;;;;;;6212679;23;20001;-65
2022/09/12 01:07:39;;;;;;;8.40;7.10;;;16.40;77.40;;;;;;6213060;23;19997;-65
2022/09/12 01:10:06;;;;;;;9.98;7.50;;;16.40;77.50;;;;;;6212814;23;20477;-65
2022/09/12 01:12:33;;;;;;;9.38;7.65;;;16.30;77.60;;;;;;6212182;23;20095;-65
2022/09/12 01:14:59;;;;;;;7.82;7.03;;;16.30;77.50;;;;;;6212806;23;20315;-66
2022/09/12 01:17:41;;;;;;;8.27;6.68;;;16.30;77.60;;;;;;6212353;23;20099;-66
2022/09/12 01:20:25;;;;;;;8.10;6.85;;;16.30;77.80;;;;;;6213336;23;20311;-66
2022/09/12 01:23:14;;;;;;;8.73;7.70;;;16.20;77.60;;;;;;6212916;23;20009;-65
2022/09/12 01:26:01;;;;;;;8.18;7.13;;;16.30;77.60;;;;;;6213434;23;20088;-66
2022/09/12 01:29:00;;;;;;;7.30;6.40;;;16.20;77.60;;;;;;6212592;23;20015;-65
2022/09/12 01:31:36;;;;;;;7.75;6.85;;;16.10;77.80;;;;;;6210816;23;20015;-66
2022/09/12 01:34:19;;;;;;;10.07;7.88;;;16.10;77.80;;;;;;6212752;23;20005;-65
2022/09/12 01:36:56;;;;;;;8.65;7.43;;;16.10;77.80;;;;;;6212876;23;20008;-66
2022/09/12 01:39:21;;;;;;;8.85;7.25;;;16.10;77.70;;;;;;6212882;23;20031;-66
2022/09/12 01:42:02;;;;;;;10.98;8.43;;;16.10;77.70;;;;;;6212498;23;20000;-66
2022/09/12 01:45:08;;;;;;;9.32;7.30;;;16.10;77.70;;;;;;6212511;23;20337;-66
2022/09/12 01:48:04;;;;;;;9.55;7.53;;;16.10;77.60;;;;;;6212172;23;20004;-66
2022/09/12 01:50:37;;;;;;;9.02;7.55;;;16.00;77.70;;;;;;6203390;23;20096;-66
2022/09/12 01:53:26;;;;;;;10.32;8.18;;;16.00;77.90;;;;;;6212214;23;20028;-65
2022/09/12 01:56:10;;;;;;;11.02;9.15;;;16.00;77.90;;;;;;6212589;23;20005;-66
2022/09/12 01:59:02;;;;;;;11.40;9.30;;;16.10;78.00;;;;;;6212279;23;20001;-66
2022/09/12 02:01:32;;;;;;;11.95;9.40;;;16.10;77.90;;;;;;6212662;23;20024;-66
2022/09/12 02:04:18;;;;;;;12.20;9.85;;;16.10;77.90;;;;;;6211287;23;20011;-66
2022/09/12 02:07:09;;;;;;;12.07;9.55;;;16.10;77.80;;;;;;6211892;23;20012;-66
2022/09/12 02:09:47;;;;;;;11.70;9.02;;;16.10;77.90;;;;;;6211389;23;20000;-66
2022/09/12 02:12:19;;;;;;;13.07;9.50;;;16.10;78.00;;;;;;6212366;23;20004;-66
2022/09/12 02:14:50;;;;;;;11.33;9.10;;;16.10;78.10;;;;;;6212609;23;20008;-66
2022/09/12 02:17:21;;;;;;;12.20;9.15;;;16.10;78.00;;;;;;6212156;23;20489;-66
2022/09/12 02:19:53;;;;;;;11.38;9.10;;;16.10;78.10;;;;;;6212068;23;20426;-67
2022/09/12 02:22:21;;;;;;;12.27;9.35;;;16.10;78.10;;;;;;6212775;23;20012;-67
2022/09/12 02:24:51;;;;;;;12.70;9.90;;;16.10;78.70;;;;;;6212299;23;20028;-66
2022/09/12 02:27:22;;;;;;;12.48;10.05;;;16.10;78.10;;;;;;6212347;23;20008;-66
2022/09/12 02:29:49;;;;;;;13.93;10.77;;;16.10;78.10;;;;;;6216691;23;20303;-66
2022/09/12 02:32:21;;;;;;;12.55;10.43;;;16.10;78.10;;;;;;6222183;23;20000;-66
2022/09/12 02:34:59;;;;;;;12.75;10.13;;;16.10;78.10;;;;;;6222365;23;20016;-66
2022/09/12 02:37:47;;;;;;;13.23;10.60;;;16.20;78.00;;;;;;6212384;23;20005;-66
2022/09/12 02:40:13;;;;;;;16.25;12.07;;;16.10;78.00;;;;;;6212851;23;20010;-66
2022/09/12 02:42:39;;;;;;;15.68;11.45;;;16.10;78.00;;;;;;6212327;23;20030;-66
2022/09/12 02:45:05;;;;;;;16.17;11.90;;;16.10;78.20;;;;;;6212173;23;20433;-65
2022/09/12 02:47:56;;;;;;;14.95;11.68;;;16.10;78.30;;;;;;6211993;23;20381;-66
2022/09/12 02:50:22;;;;;;;14.98;11.23;;;16.10;78.30;;;;;;6212014;23;19997;-66
2022/09/12 02:52:49;;;;;;;16.08;11.90;;;16.10;78.40;;;;;;6212310;23;20012;-66
2022/09/12 02:55:15;;;;;;;15.57;11.93;;;16.10;78.40;;;;;;6211831;23;20008;-66
2022/09/12 02:57:40;;;;;;;15.52;12.60;;;16.10;78.40;;;;;;6212191;23;20031;-66
2022/09/12 03:00:07;;;;;;;12.77;10.15;;;16.00;78.40;;;;;;6211702;23;20513;-66
2022/09/12 03:02:45;;;;;;;15.05;11.90;;;16.00;78.40;;;;;;6211833;23;20342;-65
2022/09/12 03:05:21;;;;;;;16.17;11.82;;;16.00;78.50;;;;;;6211896;23;20051;-66
2022/09/12 03:08:06;;;;;;;15.60;10.95;;;16.00;78.70;;;;;;6211764;23;19997;-66
2022/09/12 03:10:40;;;;;;;15.00;11.23;;;15.90;78.70;;;;;;6211658;23;20001;-65
2022/09/12 03:13:29;;;;;;;17.52;12.25;;;15.90;78.80;;;;;;6211690;23;20376;-66
2022/09/12 03:16:20;;;;;;;17.52;12.95;;;15.90;78.90;;;;;;6212021;23;20012;-66
2022/09/12 03:18:52;;;;;;;18.83;13.13;;;16.00;79.00;;;;;;6211826;23;20009;-66
2022/09/12 03:21:41;;;;;;;18.00;14.10;;;16.00;78.90;;;;;;6211949;23;20004;-66
2022/09/12 03:24:17;;;;;;;17.88;13.02;;;15.90;79.00;;;;;;6212016;23;20333;-66
2022/09/12 03:27:07;;;;;;;18.42;13.70;;;15.90;79.10;;;;;;6212462;23;20035;-67
2022/09/12 03:29:34;;;;;;;16.98;12.23;;;16.00;79.20;;;;;;6200527;23;20005;-67
2022/09/12 03:32:00;;;;;;;16.35;12.55;;;16.00;79.10;;;;;;6211640;23;20008;-66
2022/09/12 03:34:26;;;;;;;17.20;12.85;;;16.00;79.20;;;;;;6212409;23;20078;-67
2022/09/12 03:36:54;;;;;;;16.85;12.23;;;16.00;79.30;;;;;;6211634;23;20028;-66
2022/09/12 03:39:23;;;;;;;20.50;13.43;;;16.00;79.40;;;;;;6212529;23;20001;-66
2022/09/12 03:41:48;;;;;;;16.48;12.43;;;16.00;79.40;;;;;;6212207;23;20001;-66
2022/09/12 03:44:14;;;;;;;19.58;14.23;;;16.00;79.30;;;;;;6211969;23;20633;-66
2022/09/12 03:46:40;;;;;;;18.23;13.52;;;16.00;79.40;;;;;;6212019;23;20377;-65
2022/09/12 03:49:05;;;;;;;20.23;13.88;;;16.00;79.50;;;;;;6211744;23;20004;-67
2022/09/12 03:51:31;;;;;;;20.77;14.43;;;16.00;79.50;;;;;;6212040;23;20000;-67
2022/09/12 03:53:57;;;;;;;18.65;13.90;;;16.00;79.60;;;;;;6211749;23;20011;-66
2022/09/12 03:56:23;;;;;;;21.05;15.50;;;16.00;79.80;;;;;;6211593;23;20004;-67
2022/09/12 03:58:48;;;;;;;20.27;15.30;;;16.00;80.00;;;;;;6212066;23;20136;-66
2022/09/12 04:01:18;;;;;;;21.40;15.80;;;16.00;80.30;;;;;;6209710;23;20446;-66
2022/09/12 04:03:46;;;;;;;20.50;14.50;;;15.90;80.50;;;;;;6211749;23;20429;-66
2022/09/12 04:06:14;;;;;;;20.85;15.93;;;15.90;80.80;;;;;;6211517;23;20007;-66
2022/09/12 04:08:42;;;;;;;20.13;14.38;;;15.90;80.90;;;;;;6211313;23;20003;-66
2022/09/12 04:11:10;;;;;;;20.25;14.00;;;15.90;81.10;;;;;;6211832;23;20020;-65
2022/09/12 04:13:38;;;;;;;16.08;11.88;;;15.90;81.20;;;;;;6211366;23;20421;-65
2022/09/12 04:16:04;;;;;;;20.13;14.00;;;16.00;81.20;;;;;;6211555;23;20001;-65
2022/09/12 04:18:30;;;;;;;27.08;18.17;;;16.00;81.00;;;;;;6211765;23;20003;-66
2022/09/12 04:20:56;;;;;;;26.40;16.75;;;16.00;81.30;;;;;;6211491;23;20001;-66
2022/09/12 04:23:22;;;;;;;25.20;17.77;;;15.90;81.50;;;;;;6211459;23;20090;-65
2022/09/12 04:25:58;;;;;;;21.38;14.82;;;15.90;81.90;;;;;;6211484;23;19996;-66
2022/09/12 04:28:25;;;;;;;21.33;15.07;;;15.90;82.00;;;;;;6211311;23;20013;-66
2022/09/12 04:30:51;;;;;;;23.73;15.27;;;15.90;82.00;;;;;;6211476;23;20005;-66
2022/09/12 04:33:17;;;;;;;21.33;15.65;;;15.90;82.10;;;;;;6211236;23;20073;-66
2022/09/12 04:35:44;;;;;;;24.02;16.35;;;15.90;82.20;;;;;;6211672;23;20457;-66
2022/09/12 04:38:10;;;;;;;24.17;15.95;;;15.90;82.40;;;;;;6211303;23;20027;-67
2022/09/12 04:40:35;;;;;;;20.92;14.60;;;15.90;82.40;;;;;;6212499;23;20000;-65
2022/09/12 04:43:01;;;;;;;20.83;14.05;;;15.90;82.50;;;;;;6213310;23;20422;-65
2022/09/12 04:45:26;;;;;;;23.75;15.90;;;15.90;82.40;;;;;;6213146;23;20075;-65
2022/09/12 04:47:52;;;;;;;21.50;14.77;;;15.90;82.40;;;;;;6213265;23;20075;-65
2022/09/12 04:50:17;;;;;;;17.80;12.07;;;16.00;82.50;;;;;;6213038;23;20004;-65
2022/09/12 04:52:47;;;;;;;21.08;14.52;;;16.00;82.40;;;;;;6213276;23;20004;-65
2022/09/12 04:55:13;;;;;;;20.90;14.20;;;16.00;82.30;;;;;;6213182;23;20000;-65
2022/09/12 04:57:38;;;;;;;20.50;13.57;;;16.00;82.40;;;;;;6212739;23;20051;-65
2022/09/12 05:00:05;;;;;;;20.73;13.73;;;16.00;82.30;;;;;;6213186;23;20011;-65
2022/09/12 05:02:33;;;;;;;19.73;12.93;;;16.00;82.30;;;;;;6212808;23;20012;-66
2022/09/12 05:04:58;;;;;;;26.77;17.33;;;16.00;82.40;;;;;;6210927;23;20072;-65
2022/09/12 05:07:24;;;;;;;26.48;16.63;;;16.00;82.70;;;;;;6212767;23;20032;-66
2022/09/12 05:09:49;;;;;;;22.52;15.20;;;16.00;82.90;;;;;;6212680;23;19997;-66
2022/09/12 05:12:15;;;;;;;20.67;14.13;;;16.00;82.80;;;;;;6211106;23;20009;-66
2022/09/12 05:14:40;;;;;;;23.67;14.48;;;16.00;82.70;;;;;;6212025;23;20426;-66
2022/09/12 05:17:06;;;;;;;17.58;11.40;;;16.00;82.60;;;;;;6212425;23;20581;-66
2022/09/12 05:19:33;;;;;;;16.45;11.25;;;16.10;82.50;;;;;;6210935;23;20031;-66
2022/09/12 05:21:59;;;;;;;19.42;13.52;;;16.10;82.30;;;;;;6211952;23;20008;-66
2022/09/12 05:24:25;;;;;;;20.40;13.02;;;16.20;82.20;;;;;;6212549;23;20422;-66
2022/09/12 05:26:50;;;;;;;20.02;12.73;;;16.20;82.10;;;;;;6212195;23;20497;-66
2022/09/12 05:29:16;;;;;;;21.50;13.85;;;16.30;82.00;;;;;;6212949;23;20000;-66
2022/09/12 05:31:42;;;;;;;23.35;14.32;;;16.30;81.80;;;;;;6212713;23;20005;-65
2022/09/12 05:34:09;;;;;;;24.50;13.60;;;16.30;81.70;;;;;;6212307;23;20012;-65
2022/09/12 05:36:35;;;;;;;22.23;13.90;;;16.40;81.70;;;;;;6212703;23;20039;-65
2022/09/12 05:39:02;;;;;;;23.38;14.73;;;16.40;81.70;;;;;;6212347;23;20050;-65
2022/09/12 05:41:31;;;;;;;23.00;14.75;;;16.40;81.70;;;;;;6212180;23;20005;-65
2022/09/12 05:43:59;;;;;;;21.88;13.93;;;16.40;81.60;;;;;;6212690;23;19997;-65
2022/09/12 05:46:30;;;;;;;20.80;13.15;;;16.50;81.60;;;;;;6212288;23;20333;-65
2022/09/12 05:49:00;;;;;;;19.65;13.00;;;16.50;81.50;;;;;;6212759;23;20581;-65
2022/09/12 05:51:28;;;;;;;20.45;13.10;;;16.50;81.30;;;;;;6211855;23;20000;-65
2022/09/12 05:53:59;;;;;;;22.48;14.20;;;16.50;81.20;;;;;;6212773;23;20004;-65
2022/09/12 05:56:27;;;;;;;21.47;13.60;;;16.50;81.20;;;;;;6212628;23;20003;-65
2022/09/12 05:59:01;;;;;;;22.20;14.23;;;16.60;81.20;;;;;;6212322;23;20612;-65
2022/09/12 06:01:29;;;;;;;25.48;16.35;;;16.60;81.30;;;;;;6213003;23;20485;-65
2022/09/12 06:03:59;;;;;;;27.48;17.25;;;16.60;81.30;;;;;;6212634;23;20311;-65
2022/09/12 06:06:26;;;;;;;22.30;14.75;;;16.50;81.50;;;;;;6212304;23;20001;-65
2022/09/12 06:08:57;;;;;;;22.30;14.30;;;16.50;81.60;;;;;;6212457;23;20425;-65
2022/09/12 06:11:26;;;;;;;22.60;13.82;;;16.60;81.60;;;;;;6212451;23;20001;-64
2022/09/12 06:13:52;;;;;;;25.67;15.93;;;16.60;81.50;;;;;;6212583;23;20000;-65
2022/09/12 06:16:20;;;;;;;30.35;19.88;;;16.60;81.50;;;;;;6211813;23;20381;-65
2022/09/12 06:18:48;;;;;;;27.42;17.20;;;16.60;81.70;;;;;;6212565;23;20084;-65
2022/09/12 06:21:14;;;;;;;24.83;16.38;;;16.60;81.60;;;;;;6211872;23;20004;-66
2022/09/12 06:23:40;;;;;;;25.05;15.45;;;16.60;81.80;;;;;;6212045;23;20004;-65
2022/09/12 06:26:08;;;;;;;26.48;16.88;;;16.60;81.70;;;;;;6211818;23;20011;-65
2022/09/12 06:28:35;;;;;;;25.60;16.23;;;16.60;81.70;;;;;;6211808;23;20004;-66
2022/09/12 06:31:06;;;;;;;28.95;18.30;;;16.60;81.90;;;;;;6212345;23;20474;-66
2022/09/12 06:33:37;;;;;;;22.13;14.90;;;16.60;82.00;;;;;;6212088;23;20008;-66
2022/09/12 06:36:11;;;;;;;27.77;17.65;;;16.60;82.00;;;;;;6212042;23;20008;-66
2022/09/12 06:38:38;;;;;;;26.08;16.05;;;16.60;82.20;;;;;;6210297;23;20011;-66
2022/09/12 06:41:06;;;;;;;25.60;15.88;;;16.70;82.20;;;;;;6212307;23;20008;-66
2022/09/12 06:43:32;;;;;;;24.60;15.25;;;16.60;82.00;;;;;;6211640;23;20000;-66
2022/09/12 06:45:58;;;;;;;26.75;17.40;;;16.60;82.00;;;;;;6211906;23;20072;-66
2022/09/12 06:48:24;;;;;;;26.38;17.48;;;16.50;82.20;;;;;;6212121;23;20437;-66
2022/09/12 06:51:09;;;;;;;27.60;18.25;;;16.50;82.30;;;;;;6210445;23;20001;-65
2022/09/12 06:53:35;;;;;;;21.42;14.40;;;16.50;82.60;;;;;;6212109;23;20059;-65
2022/09/12 06:56:07;;;;;;;23.67;15.13;;;16.50;82.60;;;;;;6211615;23;20005;-64
2022/09/12 06:58:34;;;;;;;25.58;16.73;;;16.50;82.70;;;;;;6212177;23;20039;-65
2022/09/12 07:01:06;;;;;;;26.73;16.70;;;16.50;82.80;;;;;;6211828;23;20005;-66
2022/09/12 07:03:33;;;;;;;30.00;19.10;;;16.50;83.00;;;;;;6211559;23;20000;-66
2022/09/12 07:06:08;;;;;;;23.10;15.25;;;16.50;83.10;;;;;;6210121;23;20028;-66
2022/09/12 07:08:35;;;;;;;26.58;16.55;;;16.60;83.00;;;;;;6210051;23;20000;-66
2022/09/12 07:11:23;;;;;;;31.00;18.73;;;16.90;83.00;;;;;;6211928;23;20361;-66
2022/09/12 07:13:54;;;;;;;31.90;20.35;;;17.20;82.70;;;;;;6211279;23;20062;-66
2022/09/12 07:16:19;;;;;;;24.70;16.15;;;17.60;81.90;;;;;;6211924;23;20009;-66
2022/09/12 07:18:50;;;;;;;27.13;17.48;;;17.90;80.80;;;;;;6211327;23;20114;-66
2022/09/12 07:21:16;;;;;;;24.67;16.60;;;18.30;79.80;;;;;;6210325;23;20001;-66
2022/09/12 07:23:42;;;;;;;21.75;14.70;;;18.50;78.70;;;;;;6211509;23;20004;-66
2022/09/12 07:26:12;;;;;;;25.90;16.80;;;18.70;77.90;;;;;;6211331;23;20001;-66
2022/09/12 07:28:38;;;;;;;24.70;16.60;;;18.70;77.90;;;;;;6210997;23;20028;-65
2022/09/12 07:31:06;;;;;;;23.90;15.02;;;18.50;77.20;;;;;;6210247;23;20507;-66
2022/09/12 07:33:31;;;;;;;27.95;18.80;;;18.50;77.40;;;;;;6209934;23;20008;-66
2022/09/12 07:36:06;;;;;;;31.00;21.98;;;18.40;77.50;;;;;;6212077;23;20531;-66
2022/09/12 07:38:31;;;;;;;35.00;22.77;;;18.30;77.50;;;;;;6209545;23;20380;-66
2022/09/12 07:40:57;;;;;;;31.25;21.27;;;18.30;77.70;;;;;;6211337;23;20058;-65
2022/09/12 07:43:23;;;;;;;23.83;17.35;;;18.30;77.80;;;;;;6211555;23;20058;-65
2022/09/12 07:45:54;;;;;;;25.73;16.67;;;18.30;77.80;;;;;;6211345;23;20055;-65
2022/09/12 07:48:19;;;;;;;24.48;16.45;;;18.40;77.80;;;;;;6211422;23;20011;-66
2022/09/12 07:50:45;;;;;;;34.05;22.17;;;18.50;77.60;;;;;;6211788;23;20001;-65
2022/09/12 07:53:11;;;;;;;29.08;19.25;;;18.60;77.50;;;;;;6211624;23;20008;-66
2022/09/12 07:55:37;;;;;;;24.48;16.17;;;18.80;77.20;;;;;;6212078;23;19997;-65
2022/09/12 07:58:03;;;;;;;27.00;18.63;;;18.80;77.00;;;;;;6211458;23;20436;-66
2022/09/12 08:00:34;;;;;;;27.85;19.33;;;18.80;76.60;;;;;;6211550;23;20007;-65
2022/09/12 08:03:01;;;;;;;31.30;20.88;;;18.70;76.30;;;;;;6211221;23;20345;-65
2022/09/12 08:05:28;;;;;;;29.67;18.90;;;18.70;77.10;;;;;;6211377;23;20429;-65
2022/09/12 08:07:54;;;;;;;36.40;23.77;;;18.80;76.70;;;;;;6208384;23;20028;-66
2022/09/12 08:10:20;;;;;;;27.30;18.50;;;18.70;76.30;;;;;;6210794;23;19997;-65
2022/09/12 08:12:45;;;;;;;25.00;17.70;;;18.70;76.30;;;;;;6211166;23;20005;-65
2022/09/12 08:15:11;;;;;;;26.10;18.17;;;18.80;76.30;;;;;;6211924;23;20005;-65
2022/09/12 08:17:36;;;;;;;24.73;16.65;;;18.80;76.10;;;;;;6213447;23;20001;-65
2022/09/12 08:20:03;;;;;;;23.70;15.82;;;19.00;76.20;;;;;;6213386;23;20004;-65
2022/09/12 08:22:29;;;;;;;31.38;21.00;;;19.10;76.10;;;;;;6213246;23;20004;-66
2022/09/12 08:24:55;;;;;;;30.00;20.58;;;19.10;75.80;;;;;;6213390;23;20080;-66
2022/09/12 08:27:20;;;;;;;28.05;18.88;;;19.20;75.60;;;;;;6212425;23;20040;-65
2022/09/12 08:29:46;;;;;;;27.05;18.88;;;19.20;75.30;;;;;;6211461;23;20075;-66
2022/09/12 08:32:11;;;;;;;28.92;19.88;;;19.30;75.60;;;;;;6211351;23;20000;-65
2022/09/12 08:34:37;;;;;;;28.42;19.42;;;19.40;75.50;;;;;;6210870;23;20001;-65
2022/09/12 08:37:03;;;;;;;29.13;20.60;;;19.40;75.30;;;;;;6210763;23;20004;-66
2022/09/12 08:39:28;;;;;;;25.17;17.85;;;19.40;75.10;;;;;;6211060;23;20008;-65
2022/09/12 08:42:01;;;;;;;21.10;15.10;;;19.50;75.00;;;;;;6210798;23;20036;-65
2022/09/12 08:44:39;;;;;;;21.17;14.88;;;19.50;74.80;;;;;;6211195;23;20426;-65
2022/09/12 08:47:31;;;;;;;22.92;17.25;;;19.60;74.80;;;;;;6210712;23;20007;-65
2022/09/12 08:50:05;;;;;;;22.83;15.45;;;19.70;74.80;;;;;;6210813;23;19997;-65
2022/09/12 08:52:55;;;;;;;30.50;21.45;;;19.80;74.40;;;;;;6210859;23;20426;-65
2022/09/12 08:55:37;;;;;;;28.40;20.92;;;19.70;73.60;;;;;;6210486;23;20005;-66
2022/09/12 08:58:19;;;;;;;21.70;15.55;;;19.60;73.20;;;;;;6210989;23;20095;-65
2022/09/12 09:01:06;;;;;;;19.30;14.25;;;19.70;74.00;;;;;;6208272;23;20112;-65
2022/09/12 09:03:51;;;;;;;27.70;19.67;;;19.80;73.80;;;;;;6208425;23;20004;-66
2022/09/12 09:06:29;;;;;;;21.27;15.63;;;19.90;73.50;;;;;;6207866;23;20004;-65
2022/09/12 09:09:17;;;;;;;27.63;18.70;;;20.00;73.50;;;;;;6209141;23;20066;-65
2022/09/12 09:11:53;;;;;;;22.08;16.45;;;20.10;72.90;;;;;;6209773;23;20000;-65
2022/09/12 09:17:07;;;;;;;26.65;18.55;;;20.20;72.30;;;;;;6209707;23;20099;-65
2022/09/12 09:19:41;;;;;;;20.05;14.13;;;20.20;71.90;;;;;;6211242;23;20000;-66
2022/09/12 09:22:20;;;;;;;20.17;14.50;;;20.30;72.20;;;;;;6211289;23;20080;-65
2022/09/12 09:24:52;;;;;;;25.33;17.27;;;20.30;72.20;;;;;;6210728;23;19997;-65
2022/09/12 09:27:45;;;;;;;22.10;16.48;;;20.40;71.70;;;;;;6167500;23;1030302;-63
2022/09/12 09:30:17;;;;;;;18.60;13.45;;;20.40;71.60;;;;;;6212619;23;20374;-63
2022/09/12 09:32:43;;;;;;;;;;;20.40;71.80;;;;;;6212612;23;20339;-64
2022/09/12 09:35:21;;;;;;;22.38;15.77;;;20.50;71.70;;;;;;6212352;23;19911;-64
2022/09/12 09:38:14;;;;;;;22.65;16.17;;;20.50;71.30;;;;;;6210529;23;20338;-64
2022/09/12 09:41:05;;;;;;;20.10;14.73;;;20.70;71.80;;;;;;6212323;23;20083;-64
2022/09/12 09:43:31;;;;;;;17.27;13.23;;;20.90;71.50;;;;;;6210638;23;20016;-64
2022/09/12 09:45:59;;;;;;;17.90;12.60;;;21.10;70.50;;;;;;6211864;23;20366;-65
2022/09/12 09:48:27;;;;;;;20.80;15.55;;;21.20;70.30;;;;;;6212265;23;20000;-65
2022/09/12 09:50:52;;;;;;;20.60;15.15;;;21.30;69.80;;;;;;6211985;23;20010;-65
2022/09/12 09:53:45;;;;;;;21.23;15.00;;;21.30;69.60;;;;;;6212108;23;20036;-65
2022/09/12 09:56:26;;;;;;;18.55;12.18;;;21.30;69.50;;;;;;6211673;23;20019;-65
2022/09/12 09:58:52;;;;;;;15.70;11.15;;;21.40;69.40;;;;;;6212227;23;20011;-65
2022/09/12 10:01:18;;;;;;;18.42;14.35;;;21.40;69.30;;;;;;6211714;23;20079;-65
2022/09/12 10:03:55;;;;;;;13.15;10.23;;;21.50;68.60;;;;;;6211826;23;20008;-65
2022/09/12 10:06:39;;;;;;;11.68;8.57;;;21.50;68.80;;;;;;6212076;23;20070;-65
2022/09/12 10:09:18;;;;;;;15.10;9.68;;;21.70;68.90;;;;;;6211770;23;20539;-65
2022/09/12 10:11:44;;;;;;;14.23;11.38;;;21.80;68.40;;;;;;6211948;23;20008;-65
2022/09/12 10:14:30;;;;;;;12.93;8.63;;;21.80;67.70;;;;;;6211756;23;20011;-65
2022/09/12 10:16:57;;;;;;;10.60;7.47;;;21.90;68.00;;;;;;6211518;23;20001;-65
2022/09/12 10:19:33;;;;;;;13.77;9.55;;;22.10;67.80;;;;;;6211573;23;20011;-65
2022/09/12 10:21:59;;;;;;;10.85;8.63;;;22.10;67.10;;;;;;6210533;23;20009;-65
2022/09/12 10:24:47;;;;;;;8.27;6.13;;;22.20;67.00;;;;;;6211853;23;20001;-65
2022/09/12 10:27:14;;;;;;;10.13;6.15;;;22.30;67.10;;;;;;6211421;23;20017;-65
2022/09/12 10:29:47;;;;;;;16.67;10.05;;;22.40;66.70;;;;;;6210877;23;20071;-65
2022/09/12 10:32:23;;;;;;;8.45;6.60;;;22.40;65.20;;;;;;6211986;23;20005;-65
2022/09/12 10:34:53;;;;;;;7.03;5.97;;;22.50;65.70;;;;;;6212065;23;20396;-65
2022/09/12 10:37:29;;;;;;;8.00;5.72;;;22.60;65.20;;;;;;6211537;23;20039;-64
2022/09/12 10:39:57;;;;;;;6.97;4.82;;;22.70;64.60;;;;;;6211184;23;20000;-65
2022/09/12 10:42:45;;;;;;;6.03;4.93;;;22.80;64.30;;;;;;6209879;23;20456;-65
2022/09/12 10:45:28;;;;;;;5.93;4.85;;;22.80;63.80;;;;;;6211666;23;20019;-65
2022/09/12 10:47:57;;;;;;;10.00;6.82;;;22.90;63.50;;;;;;6212366;23;20005;-64
2022/09/12 10:50:30;;;;;;;6.78;5.70;;;22.90;61.70;;;;;;6225092;23;20000;-63
2022/09/12 10:53:22;;;;;;;9.93;6.13;;;23.00;61.70;;;;;;6215412;23;20026;-64
2022/09/12 10:56:09;;;;;;;6.27;4.50;;;23.10;60.80;;;;;;6212308;23;20422;-64
2022/09/12 10:58:58;;;;;;;5.57;4.55;;;23.10;61.10;;;;;;6212228;23;20505;-64
2022/09/12 11:01:45;;;;;;;4.30;3.78;;;23.20;61.00;;;;;;6212727;23;20039;-65
2022/09/12 11:04:56;;;;;;;7.68;6.15;;;23.30;60.90;;;;;;6212800;23;20026;-65
2022/09/12 11:07:54;;;;;;;7.65;5.95;;;23.40;60.10;;;;;;6211900;23;20011;-65
2022/09/12 11:10:42;;;;;;;6.15;4.65;;;23.50;60.40;;;;;;6211117;23;19997;-65
2022/09/12 11:13:45;;;;;;;5.72;4.82;;;23.60;60.60;;;;;;6211019;23;20005;-66
2022/09/12 11:16:31;;;;;;;5.75;3.97;;;23.80;60.30;;;;;;6211677;23;20000;-65
2022/09/12 11:19:08;;;;;;;5.78;4.55;;;23.90;60.10;;;;;;6209362;23;20421;-65
2022/09/12 11:22:04;;;;;;;7.50;5.63;;;23.90;59.80;;;;;;6211094;23;20437;-66
2022/09/12 11:25:07;;;;;;;7.90;5.00;;;24.00;59.20;;;;;;6211167;23;20007;-65
2022/09/12 11:27:51;;;;;;;5.50;4.85;;;24.00;57.90;;;;;;6211567;23;20507;-65
2022/09/12 11:30:17;;;;;;;5.57;4.25;;;24.00;56.70;;;;;;6211615;23;20058;-65
2022/09/12 11:33:04;;;;;;;5.78;4.25;;;24.10;57.10;;;;;;6214246;23;20062;-65
2022/09/12 11:35:33;;;;;;;6.88;6.03;;;24.20;57.10;;;;;;6227691;23;20016;-65
2022/09/12 11:38:37;;;;;;;5.82;4.47;;;24.30;55.70;;;;;;6215703;23;20004;-65
2022/09/12 11:41:08;;;;;;;7.25;4.35;;;24.30;55.70;;;;;;6120697;23;20033;-65
2022/09/12 11:44:08;;;;;;;4.30;3.65;;;24.40;55.30;;;;;;6119198;23;20018;-66
2022/09/12 11:46:39;;;;;;;8.52;5.72;;;24.50;55.20;;;;;;6187801;23;20038;-65
2022/09/12 11:49:13;;;;;;;5.28;3.80;;;24.50;54.20;;;;;;6213366;23;19997;-65
2022/09/12 11:51:51;;;;;;;3.33;2.92;;;24.60;54.90;;;;;;6209677;23;20012;-65
2022/09/12 11:54:38;;;;;;;7.57;6.10;;;24.80;55.10;;;;;;6214507;23;20024;-65
2022/09/12 11:57:17;;;;;;;4.78;3.63;;;24.90;53.50;;;;;;6215406;23;20008;-65
2022/09/12 11:59:50;;;;;;;4.70;3.72;;;25.00;54.10;;;;;;6213979;23;20001;-65
2022/09/12 12:02:26;;;;;;;4.75;3.40;;;25.00;54.30;;;;;;6213975;23;20005;-66
2022/09/12 12:05:28;;;;;;;3.63;2.90;;;25.10;54.00;;;;;;6214010;23;20004;-65
2022/09/12 12:07:56;;;;;;;5.28;3.50;;;25.20;54.00;;;;;;6213570;23;20369;-65
2022/09/12 12:10:32;;;;;;;5.75;4.18;;;25.30;53.00;;;;;;6213841;23;20007;-65
2022/09/12 12:12:59;;;;;;;4.32;3.03;;;25.20;52.40;;;;;;6213934;23;20004;-65
2022/09/12 12:15:25;;;;;;;7.05;4.68;;;25.30;52.90;;;;;;6213551;23;20005;-66
2022/09/12 12:18:16;;;;;;;4.38;3.15;;;25.40;52.10;;;;;;6213551;23;20476;-65
2022/09/12 12:20:42;;;;;;;3.85;3.10;;;25.50;52.00;;;;;;6213416;23;20004;-65
2022/09/12 12:23:32;;;;;;;5.22;4.28;;;25.50;52.50;;;;;;6212864;23;20393;-65
2022/09/12 12:26:00;;;;;;;4.60;3.25;;;25.60;51.60;;;;;;6213267;23;20528;-65
2022/09/12 12:28:41;;;;;;;3.13;2.40;;;25.60;52.00;;;;;;6213044;23;20067;-65
2022/09/12 12:31:08;;;;;;;4.10;3.00;;;25.80;52.40;;;;;;6209928;23;20001;-65
2022/09/12 12:33:36;;;;;;;3.28;2.45;;;26.00;51.90;;;;;;6212799;23;20338;-65
2022/09/12 12:36:07;;;;;;;4.97;4.47;;;26.00;51.80;;;;;;6212749;23;20009;-66
2022/09/12 12:38:37;;;;;;;3.05;2.72;;;26.00;50.30;;;;;;6212361;23;20004;-66
2022/09/12 12:41:18;;;;;;;4.63;3.42;;;26.00;51.10;;;;;;6212722;23;20445;-65
2022/09/12 12:43:44;;;;;;;4.57;3.40;;;26.00;50.70;;;;;;6212599;23;20103;-65
2022/09/12 12:46:15;;;;;;;5.15;4.28;;;26.00;50.80;;;;;;6211077;23;20005;-65
2022/09/12 12:48:50;;;;;;;4.38;3.55;;;25.90;49.90;;;;;;6212717;23;19997;-65
2022/09/12 12:51:22;;;;;;;4.57;3.58;;;26.00;49.90;;;;;;6212499;23;19997;-65
2022/09/12 12:53:49;;;;;;;2.88;2.58;;;25.90;50.40;;;;;;6212982;23;20080;-65
2022/09/12 12:56:44;;;;;;;4.97;3.63;;;26.00;50.70;;;;;;6212620;23;20467;-65
2022/09/12 12:59:21;;;;;;;6.43;3.22;;;26.00;50.30;;;;;;6192753;23;20012;-65
2022/09/12 13:01:51;;;;;;;2.50;2.30;;;25.90;50.50;;;;;;6212555;23;20755;-65
2022/09/12 13:04:20;;;;;;;4.82;3.35;;;26.00;51.00;;;;;;6213483;23;20000;-65